sensor_id;sensor_type;location;lat;lon;timestamp;P1;durP1;ratioP1;P2;durP2;ratioP2
68993;SDS011;56054;50.968;5.816;2023-04-24T00:01:51;5.57;;;3.27;;
68993;SDS011;56054;50.968;5.816;2023-04-24T00:04:51;6.27;;;3.17;;
68993;SDS011;56054;50.968;5.816;2023-04-24T00:07:52;6.90;;;3.37;;
68993;SDS011;56054;50.968;5.816;2023-04-24T00:10:52;5.23;;;2.90;;
68993;SDS011;56054;50.968;5.816;2023-04-24T00:13:53;5.70;;;3.53;;
68993;SDS011;56054;50.968;5.816;2023-04-24T00:20:02;8.30;;;3.87;;
68993;SDS011;56054;50.968;5.816;2023-04-24T00:23:02;10.90;;;4.53;;
68993;SDS011;56054;50.968;5.816;2023-04-24T00:26:03;8.83;;;4.03;;
68993;SDS011;56054;50.968;5.816;2023-04-24T00:29:03;8.73;;;4.20;;
68993;SDS011;56054;50.968;5.816;2023-04-24T00:32:04;8.43;;;4.57;;
68993;SDS011;56054;50.968;5.816;2023-04-24T00:35:06;7.93;;;4.63;;
68993;SDS011;56054;50.968;5.816;2023-04-24T00:38:07;6.90;;;4.60;;
68993;SDS011;56054;50.968;5.816;2023-04-24T00:41:08;8.90;;;4.93;;
68993;SDS011;56054;50.968;5.816;2023-04-24T00:44:08;8.13;;;4.87;;
68993;SDS011;56054;50.968;5.816;2023-04-24T00:47:09;9.03;;;5.30;;
68993;SDS011;56054;50.968;5.816;2023-04-24T00:50:10;11.13;;;5.57;;
68993;SDS011;56054;50.968;5.816;2023-04-24T00:53:11;9.57;;;5.00;;
68993;SDS011;56054;50.968;5.816;2023-04-24T00:56:11;13.43;;;5.87;;
68993;SDS011;56054;50.968;5.816;2023-04-24T00:59:12;11.17;;;5.57;;
68993;SDS011;56054;50.968;5.816;2023-04-24T01:02:13;10.57;;;6.50;;
68993;SDS011;56054;50.968;5.816;2023-04-24T01:05:14;13.33;;;6.20;;
68993;SDS011;56054;50.968;5.816;2023-04-24T01:08:15;10.07;;;5.87;;
68993;SDS011;56054;50.968;5.816;2023-04-24T01:11:16;16.43;;;7.23;;
68993;SDS011;56054;50.968;5.816;2023-04-24T01:14:19;15.13;;;7.83;;
68993;SDS011;56054;50.968;5.816;2023-04-24T01:17:22;14.67;;;7.03;;
68993;SDS011;56054;50.968;5.816;2023-04-24T01:20:23;18.23;;;8.20;;
68993;SDS011;56054;50.968;5.816;2023-04-24T01:23:26;13.33;;;7.53;;
68993;SDS011;56054;50.968;5.816;2023-04-24T01:26:26;17.53;;;7.87;;
68993;SDS011;56054;50.968;5.816;2023-04-24T01:32:50;19.90;;;8.47;;
68993;SDS011;56054;50.968;5.816;2023-04-24T01:35:51;15.50;;;8.03;;
68993;SDS011;56054;50.968;5.816;2023-04-24T01:38:52;15.90;;;8.27;;
68993;SDS011;56054;50.968;5.816;2023-04-24T01:41:52;18.43;;;8.50;;
68993;SDS011;56054;50.968;5.816;2023-04-24T01:44:53;16.13;;;8.57;;
68993;SDS011;56054;50.968;5.816;2023-04-24T01:47:54;17.17;;;7.80;;
68993;SDS011;56054;50.968;5.816;2023-04-24T01:50:54;13.90;;;8.33;;
68993;SDS011;56054;50.968;5.816;2023-04-24T01:53:56;15.33;;;7.77;;
68993;SDS011;56054;50.968;5.816;2023-04-24T01:56:57;16.97;;;8.50;;
68993;SDS011;56054;50.968;5.816;2023-04-24T01:59:57;17.07;;;7.63;;
68993;SDS011;56054;50.968;5.816;2023-04-24T02:02:58;17.30;;;7.43;;
68993;SDS011;56054;50.968;5.816;2023-04-24T02:06:00;14.83;;;7.60;;
68993;SDS011;56054;50.968;5.816;2023-04-24T02:09:01;14.90;;;8.37;;
68993;SDS011;56054;50.968;5.816;2023-04-24T02:12:02;17.43;;;8.27;;
68993;SDS011;56054;50.968;5.816;2023-04-24T02:15:03;14.47;;;7.60;;
68993;SDS011;56054;50.968;5.816;2023-04-24T02:18:04;12.67;;;7.30;;
68993;SDS011;56054;50.968;5.816;2023-04-24T02:21:05;16.30;;;8.07;;
68993;SDS011;56054;50.968;5.816;2023-04-24T02:24:06;13.13;;;8.07;;
68993;SDS011;56054;50.968;5.816;2023-04-24T02:27:08;19.87;;;8.77;;
68993;SDS011;56054;50.968;5.816;2023-04-24T02:30:10;16.70;;;8.63;;
68993;SDS011;56054;50.968;5.816;2023-04-24T02:33:11;16.60;;;8.90;;
68993;SDS011;56054;50.968;5.816;2023-04-24T02:36:11;26.37;;;8.83;;
68993;SDS011;56054;50.968;5.816;2023-04-24T02:39:12;19.57;;;8.40;;
68993;SDS011;56054;50.968;5.816;2023-04-24T02:42:13;13.03;;;8.10;;
68993;SDS011;56054;50.968;5.816;2023-04-24T02:45:14;15.20;;;8.50;;
68993;SDS011;56054;50.968;5.816;2023-04-24T02:51:31;12.60;;;8.20;;
68993;SDS011;56054;50.968;5.816;2023-04-24T02:54:32;16.47;;;8.57;;
68993;SDS011;56054;50.968;5.816;2023-04-24T03:04:20;18.53;;;7.93;;
68993;SDS011;56054;50.968;5.816;2023-04-24T03:10:33;15.00;;;7.53;;
68993;SDS011;56054;50.968;5.816;2023-04-24T03:13:33;13.63;;;6.43;;
68993;SDS011;56054;50.968;5.816;2023-04-24T03:16:34;15.13;;;6.90;;
68993;SDS011;56054;50.968;5.816;2023-04-24T03:19:34;12.63;;;6.80;;
68993;SDS011;56054;50.968;5.816;2023-04-24T03:22:41;14.07;;;6.83;;
68993;SDS011;56054;50.968;5.816;2023-04-24T03:25:42;14.70;;;7.17;;
68993;SDS011;56054;50.968;5.816;2023-04-24T03:28:43;12.27;;;6.00;;
68993;SDS011;56054;50.968;5.816;2023-04-24T03:31:44;16.37;;;7.63;;
68993;SDS011;56054;50.968;5.816;2023-04-24T03:34:44;11.37;;;7.23;;
68993;SDS011;56054;50.968;5.816;2023-04-24T03:37:49;14.90;;;7.13;;
68993;SDS011;56054;50.968;5.816;2023-04-24T03:41:18;12.27;;;6.20;;
68993;SDS011;56054;50.968;5.816;2023-04-24T03:44:23;13.10;;;7.23;;
68993;SDS011;56054;50.968;5.816;2023-04-24T03:58:02;20.00;;;6.43;;
68993;SDS011;56054;50.968;5.816;2023-04-24T04:01:02;15.30;;;8.43;;
68993;SDS011;56054;50.968;5.816;2023-04-24T04:04:09;11.73;;;7.40;;
68993;SDS011;56054;50.968;5.816;2023-04-24T04:07:11;15.87;;;7.60;;
68993;SDS011;56054;50.968;5.816;2023-04-24T04:10:11;14.07;;;8.13;;
68993;SDS011;56054;50.968;5.816;2023-04-24T04:13:12;13.80;;;8.17;;
68993;SDS011;56054;50.968;5.816;2023-04-24T04:16:12;15.37;;;7.67;;
68993;SDS011;56054;50.968;5.816;2023-04-24T04:19:13;14.13;;;7.87;;
68993;SDS011;56054;50.968;5.816;2023-04-24T04:22:13;11.00;;;7.53;;
68993;SDS011;56054;50.968;5.816;2023-04-24T04:25:23;14.40;;;7.03;;
68993;SDS011;56054;50.968;5.816;2023-04-24T04:28:23;11.43;;;7.47;;
68993;SDS011;56054;50.968;5.816;2023-04-24T04:31:25;12.40;;;7.20;;
68993;SDS011;56054;50.968;5.816;2023-04-24T04:34:26;11.97;;;8.00;;
68993;SDS011;56054;50.968;5.816;2023-04-24T04:37:26;14.40;;;7.67;;
68993;SDS011;56054;50.968;5.816;2023-04-24T04:40:39;10.70;;;7.03;;
68993;SDS011;56054;50.968;5.816;2023-04-24T04:43:40;11.53;;;7.10;;
68993;SDS011;56054;50.968;5.816;2023-04-24T04:46:41;12.60;;;7.40;;
68993;SDS011;56054;50.968;5.816;2023-04-24T04:50:04;12.13;;;6.83;;
68993;SDS011;56054;50.968;5.816;2023-04-24T04:53:07;14.37;;;7.37;;
68993;SDS011;56054;50.968;5.816;2023-04-24T04:56:11;16.37;;;7.00;;
68993;SDS011;56054;50.968;5.816;2023-04-24T04:59:18;14.80;;;6.43;;
68993;SDS011;56054;50.968;5.816;2023-04-24T05:02:19;10.97;;;5.90;;
68993;SDS011;56054;50.968;5.816;2023-04-24T05:05:20;10.83;;;6.30;;
68993;SDS011;56054;50.968;5.816;2023-04-24T05:08:20;8.87;;;6.43;;
68993;SDS011;56054;50.968;5.816;2023-04-24T05:11:21;12.30;;;6.93;;
68993;SDS011;56054;50.968;5.816;2023-04-24T05:14:22;12.43;;;6.33;;
68993;SDS011;56054;50.968;5.816;2023-04-24T05:17:23;10.60;;;6.20;;
68993;SDS011;56054;50.968;5.816;2023-04-24T05:20:25;8.47;;;5.37;;
68993;SDS011;56054;50.968;5.816;2023-04-24T05:23:31;12.47;;;5.77;;
68993;SDS011;56054;50.968;5.816;2023-04-24T05:26:32;10.27;;;6.30;;
68993;SDS011;56054;50.968;5.816;2023-04-24T05:29:33;9.57;;;5.43;;
68993;SDS011;56054;50.968;5.816;2023-04-24T05:32:34;9.43;;;5.93;;
68993;SDS011;56054;50.968;5.816;2023-04-24T05:35:34;15.10;;;5.70;;
68993;SDS011;56054;50.968;5.816;2023-04-24T05:38:35;12.43;;;4.97;;
68993;SDS011;56054;50.968;5.816;2023-04-24T05:41:36;6.30;;;4.00;;
68993;SDS011;56054;50.968;5.816;2023-04-24T05:44:43;7.87;;;4.47;;
68993;SDS011;56054;50.968;5.816;2023-04-24T05:47:44;8.87;;;4.43;;
68993;SDS011;56054;50.968;5.816;2023-04-24T05:50:45;10.30;;;3.73;;
68993;SDS011;56054;50.968;5.816;2023-04-24T05:53:45;5.43;;;3.40;;
68993;SDS011;56054;50.968;5.816;2023-04-24T05:56:46;5.47;;;3.10;;
68993;SDS011;56054;50.968;5.816;2023-04-24T05:59:51;6.97;;;3.23;;
68993;SDS011;56054;50.968;5.816;2023-04-24T06:02:54;5.33;;;3.10;;
68993;SDS011;56054;50.968;5.816;2023-04-24T06:05:55;5.63;;;2.93;;
68993;SDS011;56054;50.968;5.816;2023-04-24T06:08:57;4.47;;;2.93;;
68993;SDS011;56054;50.968;5.816;2023-04-24T06:11:59;4.80;;;2.90;;
68993;SDS011;56054;50.968;5.816;2023-04-24T06:15:08;4.93;;;2.70;;
68993;SDS011;56054;50.968;5.816;2023-04-24T06:18:27;3.60;;;2.43;;
68993;SDS011;56054;50.968;5.816;2023-04-24T06:21:27;7.17;;;2.90;;
68993;SDS011;56054;50.968;5.816;2023-04-24T06:24:29;5.53;;;2.97;;
68993;SDS011;56054;50.968;5.816;2023-04-24T06:27:30;6.17;;;2.60;;
68993;SDS011;56054;50.968;5.816;2023-04-24T06:30:32;3.70;;;2.70;;
68993;SDS011;56054;50.968;5.816;2023-04-24T06:33:32;6.83;;;2.70;;
68993;SDS011;56054;50.968;5.816;2023-04-24T06:36:33;6.17;;;3.00;;
68993;SDS011;56054;50.968;5.816;2023-04-24T06:43:20;4.23;;;2.67;;
68993;SDS011;56054;50.968;5.816;2023-04-24T06:46:21;7.57;;;3.00;;
68993;SDS011;56054;50.968;5.816;2023-04-24T06:49:22;9.57;;;2.80;;
68993;SDS011;56054;50.968;5.816;2023-04-24T06:52:22;5.23;;;2.93;;
68993;SDS011;56054;50.968;5.816;2023-04-24T06:55:23;4.83;;;2.63;;
68993;SDS011;56054;50.968;5.816;2023-04-24T06:58:24;8.33;;;2.97;;
68993;SDS011;56054;50.968;5.816;2023-04-24T07:01:25;4.57;;;2.97;;
68993;SDS011;56054;50.968;5.816;2023-04-24T07:04:25;5.80;;;2.83;;
68993;SDS011;56054;50.968;5.816;2023-04-24T07:07:25;7.40;;;3.40;;
68993;SDS011;56054;50.968;5.816;2023-04-24T07:10:27;5.23;;;2.47;;
68993;SDS011;56054;50.968;5.816;2023-04-24T07:13:27;4.37;;;2.97;;
68993;SDS011;56054;50.968;5.816;2023-04-24T07:16:29;5.07;;;2.63;;
68993;SDS011;56054;50.968;5.816;2023-04-24T07:19:33;4.73;;;2.57;;
68993;SDS011;56054;50.968;5.816;2023-04-24T07:22:33;4.87;;;2.57;;
68993;SDS011;56054;50.968;5.816;2023-04-24T07:25:34;6.63;;;3.07;;
68993;SDS011;56054;50.968;5.816;2023-04-24T07:28:34;5.77;;;2.97;;
68993;SDS011;56054;50.968;5.816;2023-04-24T07:31:35;7.43;;;3.67;;
68993;SDS011;56054;50.968;5.816;2023-04-24T07:34:36;7.43;;;3.67;;
68993;SDS011;56054;50.968;5.816;2023-04-24T07:37:37;6.43;;;2.93;;
68993;SDS011;56054;50.968;5.816;2023-04-24T07:40:38;6.23;;;3.57;;
68993;SDS011;56054;50.968;5.816;2023-04-24T07:43:38;7.53;;;3.87;;
68993;SDS011;56054;50.968;5.816;2023-04-24T07:46:38;5.00;;;3.37;;
68993;SDS011;56054;50.968;5.816;2023-04-24T07:49:40;7.70;;;3.50;;
68993;SDS011;56054;50.968;5.816;2023-04-24T07:52:41;4.77;;;3.43;;
68993;SDS011;56054;50.968;5.816;2023-04-24T07:59:05;7.60;;;3.50;;
68993;SDS011;56054;50.968;5.816;2023-04-24T08:02:05;6.43;;;3.97;;
68993;SDS011;56054;50.968;5.816;2023-04-24T08:05:06;8.77;;;4.77;;
68993;SDS011;56054;50.968;5.816;2023-04-24T08:08:06;6.73;;;3.97;;
68993;SDS011;56054;50.968;5.816;2023-04-24T08:11:07;7.30;;;4.00;;
68993;SDS011;56054;50.968;5.816;2023-04-24T08:14:07;8.40;;;3.53;;
68993;SDS011;56054;50.968;5.816;2023-04-24T08:17:08;10.17;;;4.20;;
68993;SDS011;56054;50.968;5.816;2023-04-24T08:20:10;4.87;;;3.50;;
68993;SDS011;56054;50.968;5.816;2023-04-24T08:23:11;6.63;;;4.00;;
68993;SDS011;56054;50.968;5.816;2023-04-24T08:26:11;9.07;;;3.97;;
68993;SDS011;56054;50.968;5.816;2023-04-24T08:29:14;9.23;;;3.83;;
68993;SDS011;56054;50.968;5.816;2023-04-24T08:32:20;7.53;;;4.10;;
68993;SDS011;56054;50.968;5.816;2023-04-24T08:35:21;7.73;;;4.23;;
68993;SDS011;56054;50.968;5.816;2023-04-24T08:38:21;7.90;;;4.13;;
68993;SDS011;56054;50.968;5.816;2023-04-24T08:41:22;7.80;;;4.17;;
68993;SDS011;56054;50.968;5.816;2023-04-24T08:44:22;12.00;;;5.10;;
68993;SDS011;56054;50.968;5.816;2023-04-24T08:47:23;8.37;;;4.43;;
68993;SDS011;56054;50.968;5.816;2023-04-24T08:50:24;9.97;;;4.10;;
68993;SDS011;56054;50.968;5.816;2023-04-24T08:53:27;8.47;;;4.17;;
68993;SDS011;56054;50.968;5.816;2023-04-24T08:56:31;9.33;;;4.23;;
68993;SDS011;56054;50.968;5.816;2023-04-24T08:59:34;7.53;;;3.80;;
68993;SDS011;56054;50.968;5.816;2023-04-24T09:02:35;8.27;;;4.30;;
68993;SDS011;56054;50.968;5.816;2023-04-24T09:05:35;6.23;;;3.83;;
68993;SDS011;56054;50.968;5.816;2023-04-24T09:08:36;7.80;;;3.90;;
68993;SDS011;56054;50.968;5.816;2023-04-24T09:11:38;7.30;;;3.27;;
68993;SDS011;56054;50.968;5.816;2023-04-24T09:14:38;11.23;;;3.53;;
68993;SDS011;56054;50.968;5.816;2023-04-24T09:17:39;10.33;;;3.60;;
68993;SDS011;56054;50.968;5.816;2023-04-24T09:23:59;5.87;;;3.40;;
68993;SDS011;56054;50.968;5.816;2023-04-24T09:27:01;8.53;;;4.73;;
68993;SDS011;56054;50.968;5.816;2023-04-24T09:30:01;12.70;;;5.20;;
68993;SDS011;56054;50.968;5.816;2023-04-24T09:33:12;11.50;;;4.70;;
68993;SDS011;56054;50.968;5.816;2023-04-24T09:36:14;10.13;;;4.57;;
68993;SDS011;56054;50.968;5.816;2023-04-24T09:39:17;10.80;;;4.50;;
68993;SDS011;56054;50.968;5.816;2023-04-24T09:42:18;9.53;;;4.67;;
68993;SDS011;56054;50.968;5.816;2023-04-24T09:45:19;11.60;;;5.07;;
68993;SDS011;56054;50.968;5.816;2023-04-24T09:48:30;10.97;;;5.30;;
68993;SDS011;56054;50.968;5.816;2023-04-24T09:51:34;9.37;;;4.80;;
68993;SDS011;56054;50.968;5.816;2023-04-24T09:54:36;9.33;;;4.60;;
68993;SDS011;56054;50.968;5.816;2023-04-24T09:57:46;15.00;;;5.07;;
68993;SDS011;56054;50.968;5.816;2023-04-24T10:00:50;11.43;;;4.87;;
68993;SDS011;56054;50.968;5.816;2023-04-24T10:03:53;8.67;;;4.53;;
68993;SDS011;56054;50.968;5.816;2023-04-24T10:06:55;8.77;;;5.03;;
68993;SDS011;56054;50.968;5.816;2023-04-24T10:09:57;9.80;;;3.67;;
68993;SDS011;56054;50.968;5.816;2023-04-24T10:12:57;11.03;;;2.77;;
68993;SDS011;56054;50.968;5.816;2023-04-24T10:15:59;9.67;;;3.23;;
68993;SDS011;56054;50.968;5.816;2023-04-24T10:19:00;8.73;;;2.93;;
68993;SDS011;56054;50.968;5.816;2023-04-24T10:22:02;12.07;;;3.13;;
68993;SDS011;56054;50.968;5.816;2023-04-24T10:25:04;8.47;;;3.30;;
68993;SDS011;56054;50.968;5.816;2023-04-24T10:28:06;5.90;;;3.40;;
68993;SDS011;56054;50.968;5.816;2023-04-24T10:31:06;12.43;;;4.17;;
68993;SDS011;56054;50.968;5.816;2023-04-24T10:34:08;12.73;;;5.13;;
68993;SDS011;56054;50.968;5.816;2023-04-24T11:14:16;14.30;;;4.00;;
68993;SDS011;56054;50.968;5.816;2023-04-24T11:20:38;10.43;;;3.77;;
68993;SDS011;56054;50.968;5.816;2023-04-24T11:23:42;6.77;;;3.40;;
68993;SDS011;56054;50.968;5.816;2023-04-24T11:26:43;14.83;;;3.70;;
68993;SDS011;56054;50.968;5.816;2023-04-24T11:29:46;12.17;;;3.73;;
68993;SDS011;56054;50.968;5.816;2023-04-24T11:33:02;9.80;;;3.50;;
68993;SDS011;56054;50.968;5.816;2023-04-24T11:36:04;8.77;;;3.07;;
68993;SDS011;56054;50.968;5.816;2023-04-24T11:39:19;9.97;;;3.43;;
68993;SDS011;56054;50.968;5.816;2023-04-24T11:42:20;15.60;;;4.23;;
68993;SDS011;56054;50.968;5.816;2023-04-24T11:45:23;6.80;;;3.17;;
68993;SDS011;56054;50.968;5.816;2023-04-24T11:55:39;9.53;;;3.53;;
68993;SDS011;56054;50.968;5.816;2023-04-24T11:58:41;9.90;;;4.03;;
68993;SDS011;56054;50.968;5.816;2023-04-24T12:01:44;10.53;;;4.33;;
68993;SDS011;56054;50.968;5.816;2023-04-24T12:04:45;10.87;;;4.73;;
68993;SDS011;56054;50.968;5.816;2023-04-24T12:07:52;9.47;;;3.80;;
68993;SDS011;56054;50.968;5.816;2023-04-24T12:10:52;14.50;;;4.40;;
68993;SDS011;56054;50.968;5.816;2023-04-24T12:13:53;13.00;;;4.03;;
68993;SDS011;56054;50.968;5.816;2023-04-24T12:16:54;11.10;;;3.93;;
68993;SDS011;56054;50.968;5.816;2023-04-24T12:20:04;10.10;;;4.20;;
68993;SDS011;56054;50.968;5.816;2023-04-24T12:23:06;13.50;;;4.20;;
68993;SDS011;56054;50.968;5.816;2023-04-24T12:26:08;9.10;;;3.90;;
68993;SDS011;56054;50.968;5.816;2023-04-24T12:29:08;11.43;;;4.10;;
68993;SDS011;56054;50.968;5.816;2023-04-24T12:32:15;8.20;;;4.17;;
68993;SDS011;56054;50.968;5.816;2023-04-24T12:35:20;10.70;;;4.27;;
68993;SDS011;56054;50.968;5.816;2023-04-24T12:38:22;12.40;;;5.13;;
68993;SDS011;56054;50.968;5.816;2023-04-24T12:41:23;9.27;;;4.30;;
68993;SDS011;56054;50.968;5.816;2023-04-24T12:44:31;10.30;;;4.73;;
68993;SDS011;56054;50.968;5.816;2023-04-24T12:47:34;7.57;;;4.33;;
68993;SDS011;56054;50.968;5.816;2023-04-24T12:50:36;7.53;;;4.23;;
68993;SDS011;56054;50.968;5.816;2023-04-24T12:53:38;11.60;;;4.60;;
68993;SDS011;56054;50.968;5.816;2023-04-24T13:00:22;8.20;;;4.50;;
68993;SDS011;56054;50.968;5.816;2023-04-24T13:03:24;6.67;;;3.63;;
68993;SDS011;56054;50.968;5.816;2023-04-24T13:06:24;7.60;;;3.60;;
68993;SDS011;56054;50.968;5.816;2023-04-24T13:09:24;7.07;;;4.23;;
68993;SDS011;56054;50.968;5.816;2023-04-24T13:12:25;9.53;;;4.07;;
68993;SDS011;56054;50.968;5.816;2023-04-24T13:15:26;9.63;;;4.27;;
68993;SDS011;56054;50.968;5.816;2023-04-24T13:18:26;6.90;;;4.17;;
68993;SDS011;56054;50.968;5.816;2023-04-24T13:21:27;8.43;;;4.60;;
68993;SDS011;56054;50.968;5.816;2023-04-24T13:24:27;9.57;;;3.63;;
68993;SDS011;56054;50.968;5.816;2023-04-24T13:27:27;8.30;;;3.93;;
68993;SDS011;56054;50.968;5.816;2023-04-24T13:30:28;5.73;;;3.60;;
68993;SDS011;56054;50.968;5.816;2023-04-24T13:33:28;9.10;;;3.73;;
68993;SDS011;56054;50.968;5.816;2023-04-24T13:36:29;8.67;;;3.70;;
68993;SDS011;56054;50.968;5.816;2023-04-24T13:39:30;8.87;;;4.53;;
68993;SDS011;56054;50.968;5.816;2023-04-24T13:42:30;10.13;;;4.20;;
68993;SDS011;56054;50.968;5.816;2023-04-24T13:45:31;5.90;;;4.17;;
68993;SDS011;56054;50.968;5.816;2023-04-24T13:48:31;10.17;;;4.33;;
68993;SDS011;56054;50.968;5.816;2023-04-24T13:51:32;7.33;;;4.13;;
68993;SDS011;56054;50.968;5.816;2023-04-24T13:54:32;9.90;;;4.63;;
68993;SDS011;56054;50.968;5.816;2023-04-24T13:57:33;6.60;;;3.93;;
68993;SDS011;56054;50.968;5.816;2023-04-24T14:00:33;9.60;;;3.57;;
